createdAt,value
2023-07-08T00:00:28.511Z,354.00
2023-07-08T00:01:28.565Z,354.00
2023-07-08T00:02:28.560Z,355.00
2023-07-08T00:03:28.473Z,355.00
2023-07-08T00:04:28.501Z,357.00
2023-07-08T00:05:28.458Z,358.00
2023-07-08T00:06:28.520Z,356.00
2023-07-08T00:07:28.472Z,357.00
2023-07-08T00:08:28.429Z,357.00
2023-07-08T00:09:28.495Z,357.00
2023-07-08T00:10:28.444Z,356.00
2023-07-08T00:11:28.469Z,356.00
2023-07-08T00:12:28.433Z,354.00
2023-07-08T00:13:28.463Z,354.00
2023-07-08T00:14:28.425Z,353.00
2023-07-08T00:15:28.417Z,354.00
2023-07-08T00:16:28.454Z,355.00
2023-07-08T00:17:28.393Z,355.00
2023-07-08T00:18:28.359Z,353.00
2023-07-08T00:19:28.391Z,356.00
2023-07-08T00:20:28.388Z,355.00
2023-07-08T00:21:28.399Z,359.00
2023-07-08T00:22:28.365Z,357.00
2023-07-08T00:23:28.376Z,358.00
2023-07-08T00:24:28.381Z,356.00
2023-07-08T00:25:28.389Z,357.00
2023-07-08T00:26:28.329Z,354.00
2023-07-08T00:27:28.336Z,355.00
2023-07-08T00:28:28.960Z,354.00
2023-07-08T00:29:28.324Z,352.00
2023-07-08T00:30:28.355Z,354.00
2023-07-08T00:31:28.455Z,356.00
2023-07-08T00:32:28.308Z,355.00
2023-07-08T00:33:28.333Z,352.00
2023-07-08T00:34:28.269Z,347.00
2023-07-08T00:35:28.279Z,349.00
2023-07-08T00:36:28.277Z,350.00
2023-07-08T00:37:28.270Z,352.00
2023-07-08T00:38:28.524Z,354.00
2023-07-08T00:39:28.238Z,356.00
2023-07-08T00:40:28.282Z,357.00
2023-07-08T00:41:28.228Z,358.00
2023-07-08T00:42:28.220Z,359.00
2023-07-08T00:43:28.253Z,359.00
2023-07-08T00:44:29.072Z,358.00
2023-07-08T00:45:28.222Z,356.00
2023-07-08T00:46:28.349Z,353.00
2023-07-08T00:47:28.257Z,351.00
2023-07-08T00:48:28.255Z,353.00
2023-07-08T00:49:28.181Z,356.00
2023-07-08T00:50:28.205Z,357.00
2023-07-08T00:51:28.163Z,358.00
2023-07-08T00:52:28.169Z,358.00
2023-07-08T00:53:28.174Z,358.00
2023-07-08T00:54:28.173Z,358.00
2023-07-08T00:55:28.188Z,357.00
2023-07-08T00:56:28.112Z,354.00
2023-07-08T00:57:28.144Z,352.00
2023-07-08T00:58:28.155Z,353.00
2023-07-08T00:59:28.129Z,352.00
2023-07-08T01:00:28.126Z,355.00
2023-07-08T01:01:28.164Z,353.00
2023-07-08T01:02:28.182Z,353.00
2023-07-08T01:03:28.248Z,353.00
2023-07-08T01:04:28.076Z,353.00
2023-07-08T01:05:28.093Z,351.00
2023-07-08T01:06:28.089Z,348.00
2023-07-08T01:07:28.084Z,349.00
2023-07-08T01:08:28.080Z,351.00
2023-07-08T01:09:28.076Z,355.00
2023-07-08T01:10:28.088Z,353.00
2023-07-08T01:11:28.089Z,354.00
2023-07-08T01:12:28.020Z,349.00
2023-07-08T01:13:28.633Z,348.00
2023-07-08T01:14:28.056Z,350.00
2023-07-08T01:15:28.011Z,351.00
2023-07-08T01:16:28.042Z,351.00
2023-07-08T01:17:28.112Z,353.00
2023-07-08T01:18:28.037Z,356.00
2023-07-08T01:19:28.049Z,356.00
2023-07-08T01:20:28.001Z,354.00
2023-07-08T01:21:27.989Z,354.00
2023-07-08T01:22:27.957Z,351.00
2023-07-08T01:23:27.972Z,353.00
2023-07-08T01:24:28.599Z,352.00
2023-07-08T01:25:27.983Z,354.00
2023-07-08T01:26:27.997Z,355.00
2023-07-08T01:27:27.932Z,355.00
2023-07-08T01:28:27.929Z,355.00
2023-07-08T01:29:28.523Z,356.00
2023-07-08T01:30:27.916Z,355.00
2023-07-08T01:31:27.946Z,356.00
2023-07-08T01:32:28.125Z,355.00
2023-07-08T01:33:27.940Z,351.00
2023-07-08T01:34:27.892Z,349.00
2023-07-08T01:35:27.884Z,346.00
2023-07-08T01:36:27.881Z,347.00
2023-07-08T01:37:27.869Z,346.00
2023-07-08T01:38:27.870Z,347.00
2023-07-08T01:39:27.873Z,346.00
2023-07-08T01:40:27.881Z,347.00
2023-07-08T01:41:27.821Z,341.00
2023-07-08T01:42:27.825Z,345.00
2023-07-08T01:43:27.821Z,343.00
2023-07-08T01:44:27.810Z,344.00
2023-07-08T01:45:27.807Z,344.00
2023-07-08T01:46:27.844Z,345.00
2023-07-08T01:47:27.838Z,346.00
2023-07-08T01:48:27.833Z,348.00
2023-07-08T01:49:27.766Z,348.00
2023-07-08T01:50:27.781Z,351.00
2023-07-08T01:51:27.800Z,350.00
2023-07-08T01:52:27.772Z,349.00
2023-07-08T01:53:27.766Z,352.00
2023-07-08T01:54:27.773Z,348.00
2023-07-08T01:55:27.769Z,351.00
2023-07-08T01:56:27.787Z,350.00
2023-07-08T01:57:27.794Z,352.00
2023-07-08T01:58:27.795Z,351.00
2023-07-08T01:59:27.834Z,351.00
2023-07-08T02:00:27.840Z,352.00
2023-07-08T02:01:27.873Z,352.00
2023-07-08T02:02:27.875Z,351.00
2023-07-08T02:03:27.856Z,350.00
2023-07-08T02:04:27.872Z,349.00
2023-07-08T02:05:27.932Z,347.00
2023-07-08T02:06:27.891Z,347.00
2023-07-08T02:07:27.878Z,347.00
2023-07-08T02:08:27.894Z,347.00
2023-07-08T02:09:27.925Z,346.00
2023-07-08T02:10:27.930Z,347.00
2023-07-08T02:11:27.935Z,349.00
2023-07-08T02:12:27.929Z,349.00
2023-07-08T02:13:28.035Z,348.00
2023-07-08T02:14:28.093Z,349.00
2023-07-08T02:15:27.962Z,350.00
2023-07-08T02:16:28.070Z,351.00
2023-07-08T02:17:27.959Z,350.00
2023-07-08T02:18:27.981Z,349.00
2023-07-08T02:19:28.045Z,352.00
2023-07-08T02:20:27.986Z,351.00
2023-07-08T02:21:28.063Z,352.00
2023-07-08T02:22:28.005Z,354.00
2023-07-08T02:23:28.012Z,354.00
2023-07-08T02:24:28.014Z,352.00
2023-07-08T02:25:28.011Z,350.00
2023-07-08T02:26:28.033Z,352.00
2023-07-08T02:27:28.044Z,353.00
2023-07-08T02:28:28.054Z,352.00
2023-07-08T02:29:28.099Z,353.00
2023-07-08T02:30:28.113Z,352.00
2023-07-08T02:31:28.183Z,350.00
2023-07-08T02:32:28.155Z,350.00
2023-07-08T02:33:28.140Z,350.00
2023-07-08T02:34:28.148Z,349.00
2023-07-08T02:35:28.194Z,350.00
2023-07-08T02:36:28.197Z,350.00
2023-07-08T02:37:28.201Z,350.00
2023-07-08T02:38:28.204Z,351.00
2023-07-08T02:39:28.229Z,349.00
2023-07-08T02:40:28.240Z,350.00
2023-07-08T02:41:28.222Z,350.00
2023-07-08T02:42:28.221Z,350.00
2023-07-08T02:43:28.258Z,350.00
2023-07-08T02:44:28.259Z,349.00
2023-07-08T02:45:28.319Z,350.00
2023-07-08T02:46:28.443Z,352.00
2023-07-08T02:47:28.310Z,351.00
2023-07-08T02:48:28.324Z,347.00
2023-07-08T02:49:29.100Z,345.00
2023-07-08T02:50:28.286Z,347.00
2023-07-08T02:51:28.404Z,348.00
2023-07-08T02:52:29.658Z,348.00
2023-07-08T02:53:28.384Z,347.00
2023-07-08T02:54:28.324Z,346.00
2023-07-08T02:55:28.400Z,346.00
2023-07-08T02:56:28.390Z,349.00
2023-07-08T02:57:28.426Z,350.00
2023-07-08T02:58:28.418Z,351.00
2023-07-08T02:59:28.432Z,351.00
2023-07-08T03:00:28.489Z,352.00
2023-07-08T03:01:28.551Z,349.00
2023-07-08T03:02:28.508Z,348.00
2023-07-08T03:03:28.530Z,348.00
2023-07-08T03:04:28.500Z,349.00
2023-07-08T03:05:28.486Z,350.00
2023-07-08T03:06:28.520Z,350.00
2023-07-08T03:07:28.511Z,348.00
2023-07-08T03:08:28.597Z,345.00
2023-07-08T03:09:28.596Z,344.00
2023-07-08T03:10:28.603Z,342.00
2023-07-08T03:11:28.656Z,345.00
2023-07-08T03:12:28.662Z,345.00
2023-07-08T03:13:28.694Z,342.00
2023-07-08T03:14:28.659Z,343.00
2023-07-08T03:15:28.742Z,343.00
2023-07-08T03:16:28.753Z,343.00
2023-07-08T03:17:28.777Z,341.00
2023-07-08T03:18:28.736Z,341.00
2023-07-08T03:19:28.765Z,343.00
2023-07-08T03:20:28.778Z,345.00
2023-07-08T03:21:28.816Z,346.00
2023-07-08T03:22:28.892Z,353.00
2023-07-08T03:23:28.782Z,351.00
2023-07-08T03:24:28.797Z,350.00
2023-07-08T03:25:28.817Z,352.00
2023-07-08T03:26:31.339Z,350.00
2023-07-08T03:27:28.817Z,349.00
2023-07-08T03:28:28.831Z,351.00
2023-07-08T03:29:28.842Z,351.00
2023-07-08T03:30:28.795Z,350.00
2023-07-08T03:31:28.793Z,349.00
2023-07-08T03:32:28.816Z,348.00
2023-07-08T03:33:28.802Z,349.00
2023-07-08T03:34:28.781Z,349.00
2023-07-08T03:35:28.786Z,352.00
2023-07-08T03:36:28.801Z,354.00
2023-07-08T03:37:28.723Z,352.00
2023-07-08T03:38:28.748Z,352.00
2023-07-08T03:39:28.730Z,354.00
2023-07-08T03:40:28.765Z,354.00
2023-07-08T03:41:28.757Z,351.00
2023-07-08T03:42:28.706Z,351.00
2023-07-08T03:43:28.695Z,351.00
2023-07-08T03:44:28.746Z,351.00
2023-07-08T03:45:28.733Z,351.00
2023-07-08T03:46:28.716Z,349.00
2023-07-08T03:47:28.713Z,350.00
2023-07-08T03:48:28.690Z,349.00
2023-07-08T03:49:28.667Z,347.00
2023-07-08T03:50:28.676Z,349.00
2023-07-08T03:51:28.757Z,348.00
2023-07-08T03:52:28.676Z,346.00
2023-07-08T03:53:28.699Z,345.00
2023-07-08T03:54:28.654Z,343.00
2023-07-08T03:55:28.647Z,342.00
2023-07-08T03:56:28.676Z,341.00
2023-07-08T03:57:28.613Z,343.00
2023-07-08T03:58:28.632Z,344.00
2023-07-08T03:59:28.641Z,342.00
2023-07-08T04:00:28.643Z,341.00
2023-07-08T04:01:28.691Z,341.00
2023-07-08T04:02:28.660Z,343.00
2023-07-08T04:03:28.750Z,345.00
2023-07-08T04:04:28.602Z,346.00
2023-07-08T04:05:28.593Z,346.00
2023-07-08T04:06:28.583Z,345.00
2023-07-08T04:07:28.628Z,344.00
2023-07-08T04:08:28.557Z,344.00
2023-07-08T04:09:28.542Z,343.00
2023-07-08T04:10:28.558Z,338.00
2023-07-08T04:11:28.555Z,339.00
2023-07-08T04:12:28.579Z,341.00
2023-07-08T04:13:28.563Z,342.00
2023-07-08T04:14:28.529Z,340.00
2023-07-08T04:15:28.506Z,342.00
2023-07-08T04:16:28.589Z,343.00
2023-07-08T04:17:28.501Z,342.00
2023-07-08T04:18:28.520Z,343.00
2023-07-08T04:19:28.650Z,345.00
2023-07-08T04:20:28.488Z,347.00
2023-07-08T04:21:28.521Z,346.00
2023-07-08T04:22:28.455Z,346.00
2023-07-08T04:23:28.452Z,347.00
2023-07-08T04:24:28.434Z,350.00
2023-07-08T04:25:29.499Z,350.00
2023-07-08T04:26:28.464Z,350.00
2023-07-08T04:27:28.464Z,348.00
2023-07-08T04:28:28.435Z,345.00
2023-07-08T04:29:28.426Z,345.00
2023-07-08T04:30:28.437Z,347.00
2023-07-08T04:31:28.507Z,347.00
2023-07-08T04:32:28.391Z,348.00
2023-07-08T04:33:28.380Z,348.00
2023-07-08T04:34:28.468Z,348.00
2023-07-08T04:35:28.367Z,349.00
2023-07-08T04:36:28.382Z,348.00
2023-07-08T04:37:28.413Z,345.00
2023-07-08T04:38:28.333Z,349.00
2023-07-08T04:39:28.441Z,350.00
2023-07-08T04:40:28.394Z,354.00
2023-07-08T04:41:28.328Z,354.00
2023-07-08T04:42:28.364Z,352.00
2023-07-08T04:43:28.350Z,352.00
2023-07-08T04:44:28.336Z,350.00
2023-07-08T04:45:28.333Z,350.00
2023-07-08T04:46:28.409Z,352.00
2023-07-08T04:47:28.388Z,352.00
2023-07-08T04:48:28.284Z,351.00
2023-07-08T04:49:28.300Z,352.00
2023-07-08T04:50:28.312Z,354.00
2023-07-08T04:51:28.267Z,355.00
2023-07-08T04:52:28.330Z,353.00
2023-07-08T04:53:28.357Z,353.00
2023-07-08T04:54:28.407Z,349.00
2023-07-08T04:55:28.393Z,347.00
2023-07-08T04:56:28.386Z,349.00
2023-07-08T04:57:28.354Z,350.00
2023-07-08T04:58:28.363Z,347.00
2023-07-08T04:59:28.374Z,347.00
2023-07-08T05:00:28.388Z,346.00
2023-07-08T05:01:28.476Z,347.00
2023-07-08T05:02:28.520Z,351.00
2023-07-08T05:03:28.511Z,353.00
2023-07-08T05:04:28.429Z,353.00
2023-07-08T05:05:28.478Z,351.00
2023-07-08T05:06:28.471Z,349.00
2023-07-08T05:07:28.491Z,346.00
2023-07-08T05:08:28.522Z,347.00
2023-07-08T05:09:28.514Z,347.00
2023-07-08T05:10:28.521Z,349.00
2023-07-08T05:11:28.531Z,350.00
2023-07-08T05:12:28.587Z,351.00
2023-07-08T05:13:28.702Z,353.00
2023-07-08T05:14:28.738Z,355.00
2023-07-08T05:15:28.707Z,352.00
2023-07-08T05:16:28.863Z,352.00
2023-07-08T05:17:28.775Z,353.00
2023-07-08T05:18:28.727Z,355.00
2023-07-08T05:19:28.780Z,354.00
2023-07-08T05:20:28.747Z,352.00
2023-07-08T05:21:28.802Z,352.00
2023-07-08T05:22:28.901Z,347.00
2023-07-08T05:23:28.906Z,347.00
2023-07-08T05:24:29.009Z,340.00
2023-07-08T05:25:29.034Z,343.00
2023-07-08T05:26:29.030Z,342.00
2023-07-08T05:27:29.045Z,341.00
2023-07-08T05:28:29.038Z,340.00
2023-07-08T05:29:29.118Z,342.00
2023-07-08T05:30:29.104Z,346.00
2023-07-08T05:31:42.191Z,346.00
2023-07-08T05:32:30.185Z,347.00
2023-07-08T05:33:29.071Z,351.00
2023-07-08T05:34:29.131Z,345.00
2023-07-08T05:35:29.080Z,344.00
2023-07-08T05:36:29.059Z,347.00
2023-07-08T05:37:29.065Z,357.00
2023-07-08T05:38:29.116Z,356.00
2023-07-08T05:39:29.060Z,350.00
2023-07-08T05:40:29.100Z,348.00
2023-07-08T05:41:29.028Z,350.00
2023-07-08T05:42:28.994Z,348.00
2023-07-08T05:43:29.031Z,350.00
2023-07-08T05:44:29.010Z,349.00
2023-07-08T05:45:28.976Z,349.00
2023-07-08T05:46:29.062Z,356.00
2023-07-08T05:47:29.018Z,353.00
2023-07-08T05:48:28.971Z,354.00
2023-07-08T05:49:28.979Z,353.00
2023-07-08T05:50:28.952Z,353.00
2023-07-08T05:51:28.969Z,350.00
2023-07-08T05:52:28.930Z,351.00
2023-07-08T05:53:28.972Z,350.00
2023-07-08T05:54:28.952Z,349.00
2023-07-08T05:55:28.981Z,348.00
2023-07-08T05:56:28.953Z,344.00
2023-07-08T05:57:29.050Z,344.00
2023-07-08T05:58:29.105Z,345.00
2023-07-08T05:59:29.139Z,344.00
2023-07-08T06:00:38.442Z,344.00
2023-07-08T06:01:30.111Z,346.00
2023-07-08T06:02:29.094Z,345.00
2023-07-08T06:03:29.111Z,347.00
2023-07-08T06:04:29.041Z,346.00
2023-07-08T06:05:29.092Z,348.00
2023-07-08T06:06:29.092Z,344.00
2023-07-08T06:07:29.042Z,343.00
2023-07-08T06:08:29.037Z,344.00
2023-07-08T06:09:29.083Z,345.00
2023-07-08T06:10:29.022Z,348.00
2023-07-08T06:11:29.961Z,351.00
2023-07-08T06:12:29.043Z,354.00
2023-07-08T06:13:29.070Z,354.00
2023-07-08T06:14:29.048Z,352.00
2023-07-08T06:15:29.710Z,351.00
2023-07-08T06:16:40.142Z,351.00
2023-07-08T06:17:30.126Z,353.00
2023-07-08T06:18:29.004Z,351.00
2023-07-08T06:19:29.696Z,349.00
2023-07-08T06:20:28.991Z,346.00
2023-07-08T06:21:29.006Z,346.00
2023-07-08T06:22:46.479Z,346.00
2023-07-08T06:23:29.944Z,345.00
2023-07-08T06:24:28.920Z,345.00
2023-07-08T06:25:28.929Z,346.00
2023-07-08T06:26:28.931Z,347.00
2023-07-08T06:27:28.905Z,349.00
2023-07-08T06:28:28.967Z,351.00
2023-07-08T06:29:28.870Z,351.00
2023-07-08T06:30:28.926Z,352.00
2023-07-08T06:31:28.944Z,353.00
2023-07-08T06:32:28.901Z,354.00
2023-07-08T06:33:28.886Z,355.00
2023-07-08T06:34:28.885Z,356.00
2023-07-08T06:35:28.892Z,358.00
2023-07-08T06:36:28.850Z,356.00
2023-07-08T06:37:28.917Z,353.00
2023-07-08T06:38:29.009Z,351.00
2023-07-08T06:39:29.022Z,352.00
2023-07-08T06:40:29.052Z,351.00
2023-07-08T06:41:29.133Z,351.00
2023-07-08T06:42:29.173Z,351.00
2023-07-08T06:43:29.255Z,349.00
2023-07-08T06:44:29.359Z,349.00
2023-07-08T06:45:29.374Z,350.00
2023-07-08T06:46:29.462Z,352.00
2023-07-08T06:47:29.463Z,354.00
2023-07-08T06:48:29.549Z,355.00
2023-07-08T06:49:29.601Z,354.00
2023-07-08T06:50:29.604Z,355.00
2023-07-08T06:51:29.677Z,354.00
2023-07-08T06:52:29.724Z,355.00
2023-07-08T06:53:29.780Z,358.00
2023-07-08T06:54:29.836Z,357.00
2023-07-08T06:55:29.837Z,360.00
2023-07-08T06:56:29.953Z,361.00
2023-07-08T06:57:29.987Z,362.00
2023-07-08T06:58:30.025Z,357.00
2023-07-08T06:59:30.089Z,356.00
2023-07-08T07:00:30.127Z,356.00
2023-07-08T07:01:30.199Z,356.00
2023-07-08T07:02:30.251Z,355.00
2023-07-08T07:03:30.341Z,355.00
2023-07-08T07:04:30.318Z,355.00
2023-07-08T07:05:30.317Z,355.00
2023-07-08T07:06:30.331Z,357.00
2023-07-08T07:07:30.343Z,358.00
2023-07-08T07:08:30.339Z,357.00
2023-07-08T07:09:30.417Z,359.00
2023-07-08T07:10:30.461Z,358.00
2023-07-08T07:11:30.520Z,357.00
2023-07-08T07:12:30.580Z,355.00
2023-07-08T07:13:30.666Z,355.00
2023-07-08T07:15:30.717Z,360.00
2023-07-08T07:16:30.674Z,361.00
2023-07-08T07:17:30.748Z,360.00
2023-07-08T07:18:30.688Z,362.00
2023-07-08T07:19:30.621Z,362.00
2023-07-08T07:20:30.593Z,361.00
2023-07-08T07:21:30.639Z,362.00
2023-07-08T07:22:30.626Z,360.00
2023-07-08T07:23:30.597Z,359.00
2023-07-08T07:24:30.630Z,356.00
2023-07-08T07:25:30.600Z,357.00
2023-07-08T07:26:30.568Z,355.00
2023-07-08T07:27:30.580Z,357.00
2023-07-08T07:28:30.709Z,355.00
2023-07-08T07:29:30.556Z,355.00
2023-07-08T07:30:30.546Z,351.00
2023-07-08T07:31:30.586Z,352.00
2023-07-08T07:32:30.602Z,353.00
2023-07-08T07:33:30.575Z,353.00
2023-07-08T07:34:30.589Z,352.00
2023-07-08T07:35:30.528Z,352.00
2023-07-08T07:36:30.532Z,352.00
2023-07-08T07:37:30.540Z,355.00
2023-07-08T07:38:30.501Z,359.00
2023-07-08T07:39:30.506Z,358.00
2023-07-08T07:40:30.495Z,358.00
2023-07-08T07:41:30.468Z,358.00
2023-07-08T07:42:30.493Z,355.00
2023-07-08T07:43:30.478Z,353.00
2023-07-08T07:44:30.479Z,355.00
2023-07-08T07:45:30.468Z,358.00
2023-07-08T07:46:31.284Z,363.00
2023-07-08T07:47:31.531Z,361.00
2023-07-08T07:48:30.449Z,361.00
2023-07-08T07:49:30.421Z,361.00
2023-07-08T07:50:30.408Z,360.00
2023-07-08T07:51:30.438Z,361.00
2023-07-08T07:52:30.402Z,358.00
2023-07-08T07:53:30.403Z,360.00
2023-07-08T07:54:30.385Z,359.00
2023-07-08T07:55:30.363Z,359.00
2023-07-08T07:56:30.367Z,358.00
2023-07-08T07:57:30.332Z,358.00
2023-07-08T07:58:30.441Z,359.00
2023-07-08T07:59:30.511Z,363.00
2023-07-08T08:00:30.558Z,362.00
2023-07-08T08:01:30.649Z,364.00
2023-07-08T08:02:30.683Z,361.00
2023-07-08T08:03:30.772Z,359.00
2023-07-08T08:04:30.799Z,359.00
2023-07-08T08:05:30.857Z,359.00
2023-07-08T08:06:30.950Z,359.00
2023-07-08T08:07:30.956Z,360.00
2023-07-08T08:08:31.030Z,362.00
2023-07-08T08:09:31.079Z,364.00
2023-07-08T08:10:31.132Z,366.00
2023-07-08T08:11:31.246Z,365.00
2023-07-08T08:12:40.830Z,365.00
2023-07-08T08:13:32.325Z,365.00
2023-07-08T08:14:31.349Z,362.00
2023-07-08T08:15:31.278Z,361.00
2023-07-08T08:16:31.292Z,362.00
2023-07-08T08:17:31.374Z,362.00
2023-07-08T08:18:31.348Z,359.00
2023-07-08T08:19:31.249Z,360.00
2023-07-08T08:20:31.256Z,361.00
2023-07-08T08:21:31.249Z,361.00
2023-07-08T08:22:31.269Z,360.00
2023-07-08T08:23:31.376Z,363.00
2023-07-08T08:24:31.477Z,365.00
2023-07-08T08:25:31.421Z,367.00
2023-07-08T08:26:31.419Z,366.00
2023-07-08T08:27:31.408Z,366.00
2023-07-08T08:28:31.465Z,366.00
2023-07-08T08:29:31.510Z,364.00
2023-07-08T08:30:31.605Z,363.00
2023-07-08T08:31:31.665Z,362.00
2023-07-08T08:32:31.740Z,362.00
2023-07-08T08:33:31.784Z,360.00
2023-07-08T08:34:31.801Z,364.00
2023-07-08T08:35:31.951Z,367.00
2023-07-08T08:36:31.878Z,368.00
2023-07-08T08:37:31.848Z,370.00
2023-07-08T08:38:31.871Z,368.00
2023-07-08T08:39:31.835Z,369.00
2023-07-08T08:40:31.825Z,368.00
2023-07-08T08:41:31.907Z,371.00
2023-07-08T08:42:31.909Z,369.00
2023-07-08T08:43:31.930Z,368.00
2023-07-08T08:44:32.011Z,366.00
2023-07-08T08:45:32.049Z,366.00
2023-07-08T08:46:32.129Z,368.00
2023-07-08T08:47:32.121Z,370.00
2023-07-08T08:48:32.170Z,368.00
2023-07-08T08:49:32.222Z,367.00
2023-07-08T08:50:32.279Z,367.00
2023-07-08T08:51:32.337Z,365.00
2023-07-08T08:52:32.401Z,363.00
2023-07-08T08:53:32.504Z,364.00
2023-07-08T08:54:32.510Z,362.00
2023-07-08T08:55:32.570Z,361.00
2023-07-08T08:56:32.640Z,359.00
2023-07-08T08:57:32.740Z,362.00
2023-07-08T08:58:32.796Z,365.00
2023-07-08T08:59:32.803Z,366.00
2023-07-08T09:00:32.862Z,365.00
2023-07-08T09:01:33.342Z,365.00
2023-07-08T09:02:32.988Z,367.00
2023-07-08T09:03:33.020Z,368.00
2023-07-08T09:04:32.994Z,369.00
2023-07-08T09:05:33.053Z,369.00
2023-07-08T09:06:33.133Z,367.00
2023-07-08T09:07:33.197Z,365.00
2023-07-08T09:08:33.282Z,365.00
2023-07-08T09:09:33.352Z,363.00
2023-07-08T09:10:33.238Z,361.00
2023-07-08T09:11:33.224Z,364.00
2023-07-08T09:12:33.235Z,363.00
2023-07-08T09:13:33.291Z,366.00
2023-07-08T09:14:33.246Z,367.00
2023-07-08T09:15:33.293Z,366.00
2023-07-08T09:16:33.262Z,369.00
2023-07-08T09:17:36.278Z,370.00
2023-07-08T09:18:33.306Z,370.00
2023-07-08T09:19:33.259Z,373.00
2023-07-08T09:20:33.280Z,373.00
2023-07-08T09:21:33.257Z,368.00
2023-07-08T09:22:33.264Z,369.00
2023-07-08T09:23:33.240Z,368.00
2023-07-08T09:24:33.232Z,366.00
2023-07-08T09:25:33.220Z,366.00
2023-07-08T09:26:33.224Z,365.00
2023-07-08T09:27:33.236Z,366.00
2023-07-08T09:28:33.195Z,370.00
2023-07-08T09:29:33.209Z,371.00
2023-07-08T09:30:33.186Z,370.00
2023-07-08T09:31:33.254Z,371.00
2023-07-08T09:32:33.372Z,372.00
2023-07-08T09:33:34.413Z,372.00
2023-07-08T09:34:33.173Z,372.00
2023-07-08T09:35:33.166Z,369.00
2023-07-08T09:36:33.148Z,370.00
2023-07-08T09:37:33.223Z,373.00
2023-07-08T09:38:33.164Z,371.00
2023-07-08T09:39:33.142Z,370.00
2023-07-08T09:40:33.106Z,369.00
2023-07-08T09:41:33.122Z,367.00
2023-07-08T09:42:33.129Z,366.00
2023-07-08T09:43:33.098Z,369.00
2023-07-08T09:44:33.108Z,370.00
2023-07-08T09:45:33.084Z,369.00
2023-07-08T09:46:33.183Z,371.00
2023-07-08T09:47:33.179Z,371.00
2023-07-08T09:48:33.085Z,371.00
2023-07-08T09:49:33.040Z,369.00
2023-07-08T09:50:33.057Z,369.00
2023-07-08T09:51:33.046Z,370.00
2023-07-08T09:52:33.026Z,368.00
2023-07-08T09:53:33.030Z,370.00
2023-07-08T09:54:33.012Z,370.00
2023-07-08T09:55:33.141Z,372.00
2023-07-08T09:56:32.977Z,372.00
2023-07-08T09:57:33.022Z,373.00
2023-07-08T09:58:33.065Z,376.00
2023-07-08T09:59:33.146Z,377.00
2023-07-08T10:00:33.079Z,373.00
2023-07-08T10:01:33.081Z,371.00
2023-07-08T10:02:33.225Z,370.00
2023-07-08T10:03:33.228Z,369.00
2023-07-08T10:04:33.224Z,366.00
2023-07-08T10:05:33.084Z,367.00
2023-07-08T10:06:33.121Z,367.00
2023-07-08T10:07:33.160Z,367.00
2023-07-08T10:08:33.192Z,368.00
2023-07-08T10:09:33.231Z,367.00
2023-07-08T10:10:33.250Z,367.00
2023-07-08T10:11:33.330Z,368.00
2023-07-08T10:12:33.483Z,368.00
2023-07-08T10:13:33.508Z,370.00
2023-07-08T10:14:33.459Z,371.00
2023-07-08T10:15:33.483Z,370.00
2023-07-08T10:16:33.508Z,372.00
2023-07-08T10:17:33.688Z,372.00
2023-07-08T10:18:33.571Z,373.00
2023-07-08T10:19:34.395Z,372.00
2023-07-08T10:20:33.557Z,373.00
2023-07-08T10:21:33.529Z,372.00
2023-07-08T10:22:33.566Z,372.00
2023-07-08T10:23:33.584Z,370.00
2023-07-08T10:24:33.561Z,368.00
2023-07-08T10:25:33.562Z,368.00
2023-07-08T10:26:33.583Z,370.00
2023-07-08T10:27:33.684Z,368.00
2023-07-08T10:28:33.584Z,371.00
2023-07-08T10:29:33.669Z,369.00
2023-07-08T10:30:33.808Z,369.00
2023-07-08T10:31:33.891Z,367.00
2023-07-08T10:32:33.870Z,364.00
2023-07-08T10:33:33.841Z,363.00
2023-07-08T10:34:33.918Z,366.00
2023-07-08T10:35:34.506Z,366.00
2023-07-08T10:36:34.036Z,365.00
2023-07-08T10:37:34.077Z,367.00
2023-07-08T10:38:34.266Z,370.00
2023-07-08T10:39:34.295Z,368.00
2023-07-08T10:40:34.306Z,369.00
2023-07-08T10:41:34.304Z,371.00
2023-07-08T10:42:34.326Z,370.00
2023-07-08T10:43:34.414Z,370.00
2023-07-08T10:44:34.403Z,372.00
2023-07-08T10:45:34.490Z,368.00
2023-07-08T10:46:34.481Z,368.00
2023-07-08T10:47:34.544Z,367.00
2023-07-08T10:48:34.475Z,365.00
2023-07-08T10:49:34.493Z,363.00
2023-07-08T10:50:34.454Z,360.00
2023-07-08T10:51:34.523Z,364.00
2023-07-08T10:52:34.482Z,367.00
2023-07-08T10:53:34.510Z,366.00
2023-07-08T10:54:34.527Z,368.00
2023-07-08T10:55:34.552Z,369.00
2023-07-08T10:56:34.530Z,369.00
2023-07-08T10:57:34.525Z,368.00
2023-07-08T10:58:34.541Z,367.00
2023-07-08T10:59:34.653Z,365.00
2023-07-08T11:00:34.518Z,364.00
2023-07-08T11:01:34.573Z,364.00
2023-07-08T11:02:34.630Z,365.00
2023-07-08T11:03:34.630Z,364.00
2023-07-08T11:04:34.576Z,363.00
2023-07-08T11:05:34.644Z,363.00
2023-07-08T11:06:34.658Z,362.00
2023-07-08T11:07:34.658Z,362.00
2023-07-08T11:08:34.637Z,365.00
2023-07-08T11:09:34.701Z,366.00
2023-07-08T11:10:36.705Z,365.00
2023-07-08T11:11:34.709Z,364.00
2023-07-08T11:12:34.691Z,363.00
2023-07-08T11:13:34.720Z,366.00
2023-07-08T11:14:34.722Z,367.00
2023-07-08T11:15:34.755Z,366.00
2023-07-08T11:16:36.872Z,368.00
2023-07-08T11:17:34.871Z,364.00
2023-07-08T11:18:34.919Z,367.00
2023-07-08T11:19:34.854Z,366.00
2023-07-08T11:20:34.885Z,365.00
2023-07-08T11:21:34.831Z,362.00
2023-07-08T11:22:34.845Z,360.00
2023-07-08T11:23:34.868Z,361.00
2023-07-08T11:24:34.821Z,361.00
2023-07-08T11:25:34.889Z,358.00
2023-07-08T11:26:34.900Z,358.00
2023-07-08T11:27:34.903Z,360.00
2023-07-08T11:28:34.940Z,359.00
2023-07-08T11:29:34.915Z,359.00
2023-07-08T11:30:34.956Z,359.00
2023-07-08T11:31:35.165Z,358.00
2023-07-08T11:32:35.087Z,358.00
2023-07-08T11:33:36.216Z,357.00
2023-07-08T11:34:34.983Z,355.00
2023-07-08T11:35:34.995Z,355.00
2023-07-08T11:36:34.996Z,355.00
2023-07-08T11:37:34.998Z,357.00
2023-07-08T11:38:34.987Z,358.00
2023-07-08T11:39:34.968Z,359.00
2023-07-08T11:40:34.995Z,357.00
2023-07-08T11:41:34.979Z,355.00
2023-07-08T11:42:35.008Z,357.00
2023-07-08T11:43:35.012Z,357.00
2023-07-08T11:44:37.133Z,357.00
2023-07-08T11:45:35.018Z,360.00
2023-07-08T11:46:35.031Z,362.00
2023-07-08T11:47:35.135Z,363.00
2023-07-08T11:48:35.090Z,363.00
2023-07-08T11:49:35.064Z,362.00
2023-07-08T11:50:34.968Z,362.00
2023-07-08T11:51:34.934Z,361.00
2023-07-08T11:52:34.986Z,360.00
2023-07-08T11:53:35.066Z,361.00
2023-07-08T11:54:34.940Z,359.00
2023-07-08T11:55:34.931Z,359.00
2023-07-08T11:56:34.921Z,357.00
2023-07-08T11:57:34.946Z,357.00
2023-07-08T11:58:34.951Z,356.00
2023-07-08T11:59:34.898Z,356.00
2023-07-08T12:00:34.930Z,360.00
2023-07-08T12:01:34.924Z,363.00
2023-07-08T12:02:34.959Z,361.00
2023-07-08T12:03:34.920Z,364.00
2023-07-08T12:04:34.886Z,362.00
2023-07-08T12:05:34.857Z,363.00
2023-07-08T12:06:34.874Z,364.00
2023-07-08T12:07:35.003Z,365.00
2023-07-08T12:08:34.840Z,366.00
2023-07-08T12:09:34.864Z,362.00
2023-07-08T12:10:34.855Z,360.00
2023-07-08T12:11:34.841Z,361.00
2023-07-08T12:12:34.848Z,361.00
2023-07-08T12:13:34.862Z,363.00
2023-07-08T12:14:34.857Z,362.00
2023-07-08T12:15:34.794Z,362.00
2023-07-08T12:16:34.852Z,360.00
2023-07-08T12:17:34.817Z,359.00
2023-07-08T12:18:34.826Z,358.00
2023-07-08T12:19:35.979Z,360.00
2023-07-08T12:20:34.799Z,360.00
2023-07-08T12:21:34.795Z,359.00
2023-07-08T12:22:34.781Z,358.00
2023-07-08T12:23:34.728Z,359.00
2023-07-08T12:24:34.766Z,358.00
2023-07-08T12:25:34.772Z,359.00
2023-07-08T12:26:34.729Z,362.00
2023-07-08T12:27:34.732Z,359.00
2023-07-08T12:28:34.827Z,361.00
2023-07-08T12:29:34.750Z,363.00